sensor_id;sensor_type;location;lat;lon;timestamp;P1;durP1;ratioP1;P2;durP2;ratioP2
19828;SDS011;10075;50.924;4.396;2022-08-07T00:00:02;3.20;;;1.40;;
19828;SDS011;10075;50.924;4.396;2022-08-07T00:02:30;3.22;;;1.75;;
19828;SDS011;10075;50.924;4.396;2022-08-07T00:04:57;4.35;;;1.60;;
19828;SDS011;10075;50.924;4.396;2022-08-07T00:07:23;4.38;;;1.90;;
19828;SDS011;10075;50.924;4.396;2022-08-07T00:09:52;4.88;;;1.85;;
19828;SDS011;10075;50.924;4.396;2022-08-07T00:12:19;4.25;;;1.95;;
19828;SDS011;10075;50.924;4.396;2022-08-07T00:14:46;5.13;;;1.90;;
19828;SDS011;10075;50.924;4.396;2022-08-07T00:17:13;4.65;;;2.20;;
19828;SDS011;10075;50.924;4.396;2022-08-07T00:19:40;5.53;;;2.20;;
19828;SDS011;10075;50.924;4.396;2022-08-07T00:22:07;3.22;;;2.08;;
19828;SDS011;10075;50.924;4.396;2022-08-07T00:24:33;4.38;;;2.42;;
19828;SDS011;10075;50.924;4.396;2022-08-07T00:27:02;4.68;;;2.30;;
19828;SDS011;10075;50.924;4.396;2022-08-07T00:29:29;3.80;;;2.10;;
19828;SDS011;10075;50.924;4.396;2022-08-07T00:31:56;4.90;;;2.05;;
19828;SDS011;10075;50.924;4.396;2022-08-07T00:34:24;4.13;;;1.90;;
19828;SDS011;10075;50.924;4.396;2022-08-07T00:36:51;4.30;;;1.83;;
19828;SDS011;10075;50.924;4.396;2022-08-07T00:39:18;4.72;;;2.20;;
19828;SDS011;10075;50.924;4.396;2022-08-07T00:41:48;4.22;;;1.90;;
19828;SDS011;10075;50.924;4.396;2022-08-07T00:44:18;2.80;;;2.00;;
19828;SDS011;10075;50.924;4.396;2022-08-07T00:46:45;3.20;;;1.95;;
19828;SDS011;10075;50.924;4.396;2022-08-07T00:49:12;5.10;;;2.45;;
19828;SDS011;10075;50.924;4.396;2022-08-07T00:51:39;5.40;;;2.60;;
19828;SDS011;10075;50.924;4.396;2022-08-07T00:54:06;4.05;;;2.40;;
19828;SDS011;10075;50.924;4.396;2022-08-07T00:56:33;3.17;;;2.20;;
19828;SDS011;10075;50.924;4.396;2022-08-07T00:59:01;3.42;;;1.90;;
19828;SDS011;10075;50.924;4.396;2022-08-07T01:01:31;4.03;;;2.45;;
19828;SDS011;10075;50.924;4.396;2022-08-07T01:03:58;5.63;;;2.70;;
19828;SDS011;10075;50.924;4.396;2022-08-07T01:06:25;4.53;;;1.85;;
19828;SDS011;10075;50.924;4.396;2022-08-07T01:08:53;5.75;;;2.40;;
19828;SDS011;10075;50.924;4.396;2022-08-07T01:11:20;4.40;;;2.50;;
19828;SDS011;10075;50.924;4.396;2022-08-07T01:13:48;4.45;;;2.42;;
19828;SDS011;10075;50.924;4.396;2022-08-07T01:16:15;4.55;;;2.20;;
19828;SDS011;10075;50.924;4.396;2022-08-07T01:18:43;4.88;;;2.67;;
19828;SDS011;10075;50.924;4.396;2022-08-07T01:21:13;4.65;;;2.45;;
19828;SDS011;10075;50.924;4.396;2022-08-07T01:23:42;5.03;;;2.20;;
19828;SDS011;10075;50.924;4.396;2022-08-07T01:26:11;3.55;;;2.20;;
19828;SDS011;10075;50.924;4.396;2022-08-07T01:28:40;5.35;;;2.50;;
19828;SDS011;10075;50.924;4.396;2022-08-07T01:31:07;2.90;;;1.90;;
19828;SDS011;10075;50.924;4.396;2022-08-07T01:33:35;3.47;;;1.98;;
19828;SDS011;10075;50.924;4.396;2022-08-07T01:36:02;3.03;;;2.63;;
19828;SDS011;10075;50.924;4.396;2022-08-07T01:38:34;4.05;;;3.05;;
19828;SDS011;10075;50.924;4.396;2022-08-07T01:41:02;8.05;;;2.60;;
19828;SDS011;10075;50.924;4.396;2022-08-07T01:43:31;3.42;;;2.47;;
19828;SDS011;10075;50.924;4.396;2022-08-07T01:45:59;3.65;;;2.13;;
19828;SDS011;10075;50.924;4.396;2022-08-07T01:48:27;7.25;;;2.78;;
19828;SDS011;10075;50.924;4.396;2022-08-07T01:50:57;3.80;;;2.03;;
19828;SDS011;10075;50.924;4.396;2022-08-07T01:53:26;4.32;;;2.88;;
19828;SDS011;10075;50.924;4.396;2022-08-07T01:56:00;6.43;;;2.65;;
19828;SDS011;10075;50.924;4.396;2022-08-07T01:58:31;3.03;;;2.00;;
19828;SDS011;10075;50.924;4.396;2022-08-07T02:01:00;6.50;;;2.92;;
19828;SDS011;10075;50.924;4.396;2022-08-07T02:03:30;4.78;;;2.20;;
19828;SDS011;10075;50.924;4.396;2022-08-07T02:06:01;5.63;;;2.88;;
19828;SDS011;10075;50.924;4.396;2022-08-07T02:08:31;4.40;;;2.70;;
19828;SDS011;10075;50.924;4.396;2022-08-07T02:11:06;3.95;;;2.65;;
19828;SDS011;10075;50.924;4.396;2022-08-07T02:13:34;4.40;;;2.58;;
19828;SDS011;10075;50.924;4.396;2022-08-07T02:16:03;3.17;;;2.10;;
19828;SDS011;10075;50.924;4.396;2022-08-07T02:18:33;4.80;;;2.40;;
19828;SDS011;10075;50.924;4.396;2022-08-07T02:21:03;4.70;;;2.53;;
19828;SDS011;10075;50.924;4.396;2022-08-07T02:23:34;4.50;;;2.60;;
19828;SDS011;10075;50.924;4.396;2022-08-07T02:26:06;3.60;;;2.20;;
19828;SDS011;10075;50.924;4.396;2022-08-07T02:28:34;5.18;;;2.65;;
19828;SDS011;10075;50.924;4.396;2022-08-07T02:31:02;5.22;;;2.63;;
19828;SDS011;10075;50.924;4.396;2022-08-07T02:33:31;4.68;;;2.67;;
19828;SDS011;10075;50.924;4.396;2022-08-07T02:36:00;5.97;;;2.75;;
19828;SDS011;10075;50.924;4.396;2022-08-07T02:38:36;6.32;;;2.83;;
19828;SDS011;10075;50.924;4.396;2022-08-07T02:41:05;4.72;;;2.88;;
19828;SDS011;10075;50.924;4.396;2022-08-07T02:43:33;5.32;;;2.67;;
19828;SDS011;10075;50.924;4.396;2022-08-07T02:46:03;5.45;;;3.00;;
19828;SDS011;10075;50.924;4.396;2022-08-07T02:48:32;6.50;;;3.33;;
19828;SDS011;10075;50.924;4.396;2022-08-07T02:51:00;6.75;;;3.42;;
19828;SDS011;10075;50.924;4.396;2022-08-07T02:53:33;4.85;;;2.95;;
19828;SDS011;10075;50.924;4.396;2022-08-07T02:56:03;3.95;;;3.08;;
19828;SDS011;10075;50.924;4.396;2022-08-07T02:58:33;6.03;;;3.50;;
19828;SDS011;10075;50.924;4.396;2022-08-07T03:01:01;5.32;;;3.70;;
19828;SDS011;10075;50.924;4.396;2022-08-07T03:03:30;4.30;;;3.03;;
19828;SDS011;10075;50.924;4.396;2022-08-07T03:05:59;6.07;;;3.35;;
19828;SDS011;10075;50.924;4.396;2022-08-07T03:08:27;4.45;;;3.25;;
19828;SDS011;10075;50.924;4.396;2022-08-07T03:10:55;4.90;;;3.10;;
19828;SDS011;10075;50.924;4.396;2022-08-07T03:13:24;4.63;;;3.45;;
19828;SDS011;10075;50.924;4.396;2022-08-07T03:15:51;6.10;;;3.65;;
19828;SDS011;10075;50.924;4.396;2022-08-07T03:18:19;5.32;;;3.85;;
19828;SDS011;10075;50.924;4.396;2022-08-07T03:20:47;5.70;;;3.45;;
19828;SDS011;10075;50.924;4.396;2022-08-07T03:23:15;5.03;;;3.35;;
19828;SDS011;10075;50.924;4.396;2022-08-07T03:25:44;6.38;;;3.85;;
19828;SDS011;10075;50.924;4.396;2022-08-07T03:28:15;5.43;;;3.60;;
19828;SDS011;10075;50.924;4.396;2022-08-07T03:30:44;5.55;;;3.58;;
19828;SDS011;10075;50.924;4.396;2022-08-07T03:33:12;6.45;;;3.35;;
19828;SDS011;10075;50.924;4.396;2022-08-07T03:35:40;3.92;;;2.53;;
19828;SDS011;10075;50.924;4.396;2022-08-07T03:38:08;6.28;;;3.80;;
19828;SDS011;10075;50.924;4.396;2022-08-07T03:40:37;4.45;;;2.92;;
19828;SDS011;10075;50.924;4.396;2022-08-07T03:43:05;5.85;;;2.42;;
19828;SDS011;10075;50.924;4.396;2022-08-07T03:45:32;6.20;;;2.92;;
19828;SDS011;10075;50.924;4.396;2022-08-07T03:48:01;8.60;;;4.15;;
19828;SDS011;10075;50.924;4.396;2022-08-07T03:50:28;7.65;;;4.30;;
19828;SDS011;10075;50.924;4.396;2022-08-07T03:52:57;7.32;;;4.55;;
19828;SDS011;10075;50.924;4.396;2022-08-07T03:55:25;7.72;;;4.78;;
19828;SDS011;10075;50.924;4.396;2022-08-07T03:57:53;8.32;;;5.63;;
19828;SDS011;10075;50.924;4.396;2022-08-07T04:00:21;8.52;;;4.85;;
19828;SDS011;10075;50.924;4.396;2022-08-07T04:02:50;10.65;;;5.63;;
19828;SDS011;10075;50.924;4.396;2022-08-07T04:05:19;6.13;;;5.25;;
19828;SDS011;10075;50.924;4.396;2022-08-07T04:07:46;12.00;;;5.95;;
19828;SDS011;10075;50.924;4.396;2022-08-07T04:10:14;8.00;;;5.18;;
19828;SDS011;10075;50.924;4.396;2022-08-07T04:12:41;11.02;;;6.30;;
19828;SDS011;10075;50.924;4.396;2022-08-07T04:15:09;10.52;;;5.68;;
19828;SDS011;10075;50.924;4.396;2022-08-07T04:17:36;8.75;;;6.15;;
19828;SDS011;10075;50.924;4.396;2022-08-07T04:20:04;11.45;;;6.75;;
19828;SDS011;10075;50.924;4.396;2022-08-07T04:22:36;8.38;;;6.15;;
19828;SDS011;10075;50.924;4.396;2022-08-07T04:25:05;8.98;;;6.90;;
19828;SDS011;10075;50.924;4.396;2022-08-07T04:27:33;9.88;;;6.15;;
19828;SDS011;10075;50.924;4.396;2022-08-07T04:30:01;8.50;;;6.03;;
19828;SDS011;10075;50.924;4.396;2022-08-07T04:32:29;8.68;;;6.60;;
19828;SDS011;10075;50.924;4.396;2022-08-07T04:34:57;9.65;;;6.18;;
19828;SDS011;10075;50.924;4.396;2022-08-07T04:37:26;9.90;;;6.40;;
19828;SDS011;10075;50.924;4.396;2022-08-07T04:39:55;8.40;;;6.63;;
19828;SDS011;10075;50.924;4.396;2022-08-07T04:42:21;10.07;;;6.65;;
19828;SDS011;10075;50.924;4.396;2022-08-07T04:44:52;10.05;;;6.25;;
19828;SDS011;10075;50.924;4.396;2022-08-07T04:47:20;11.25;;;6.88;;
19828;SDS011;10075;50.924;4.396;2022-08-07T04:49:56;10.00;;;6.68;;
19828;SDS011;10075;50.924;4.396;2022-08-07T04:52:29;12.73;;;6.35;;
19828;SDS011;10075;50.924;4.396;2022-08-07T04:55:05;11.68;;;6.97;;
19828;SDS011;10075;50.924;4.396;2022-08-07T04:57:40;8.10;;;6.60;;
19828;SDS011;10075;50.924;4.396;2022-08-07T05:00:13;10.63;;;6.55;;
19828;SDS011;10075;50.924;4.396;2022-08-07T05:02:43;8.80;;;5.82;;
19828;SDS011;10075;50.924;4.396;2022-08-07T05:05:17;10.57;;;5.95;;
19828;SDS011;10075;50.924;4.396;2022-08-07T05:07:50;6.85;;;5.45;;
19828;SDS011;10075;50.924;4.396;2022-08-07T05:10:23;10.27;;;6.30;;
19828;SDS011;10075;50.924;4.396;2022-08-07T05:12:58;7.03;;;5.72;;
19828;SDS011;10075;50.924;4.396;2022-08-07T05:15:29;11.50;;;6.28;;
19828;SDS011;10075;50.924;4.396;2022-08-07T05:18:01;9.23;;;5.95;;
19828;SDS011;10075;50.924;4.396;2022-08-07T05:20:31;8.15;;;5.43;;
19828;SDS011;10075;50.924;4.396;2022-08-07T05:23:04;7.55;;;5.18;;
19828;SDS011;10075;50.924;4.396;2022-08-07T05:25:37;7.53;;;5.75;;
19828;SDS011;10075;50.924;4.396;2022-08-07T05:28:07;6.45;;;5.05;;
19828;SDS011;10075;50.924;4.396;2022-08-07T05:30:35;7.70;;;5.90;;
19828;SDS011;10075;50.924;4.396;2022-08-07T05:33:04;9.45;;;5.65;;
19828;SDS011;10075;50.924;4.396;2022-08-07T05:35:33;8.65;;;5.80;;
19828;SDS011;10075;50.924;4.396;2022-08-07T05:38:03;7.70;;;5.70;;
19828;SDS011;10075;50.924;4.396;2022-08-07T05:40:31;6.95;;;6.05;;
19828;SDS011;10075;50.924;4.396;2022-08-07T05:43:03;6.45;;;5.78;;
19828;SDS011;10075;50.924;4.396;2022-08-07T05:45:30;7.15;;;5.28;;
19828;SDS011;10075;50.924;4.396;2022-08-07T05:47:58;6.50;;;5.22;;
19828;SDS011;10075;50.924;4.396;2022-08-07T05:50:27;9.05;;;5.60;;
19828;SDS011;10075;50.924;4.396;2022-08-07T05:52:57;11.35;;;5.95;;
19828;SDS011;10075;50.924;4.396;2022-08-07T05:55:25;7.82;;;5.85;;
19828;SDS011;10075;50.924;4.396;2022-08-07T05:57:52;11.27;;;6.10;;
19828;SDS011;10075;50.924;4.396;2022-08-07T06:00:22;9.85;;;5.93;;
19828;SDS011;10075;50.924;4.396;2022-08-07T06:02:49;8.63;;;6.65;;
19828;SDS011;10075;50.924;4.396;2022-08-07T06:05:19;10.73;;;6.47;;
19828;SDS011;10075;50.924;4.396;2022-08-07T06:07:47;10.15;;;5.80;;
19828;SDS011;10075;50.924;4.396;2022-08-07T06:10:15;10.32;;;6.68;;
19828;SDS011;10075;50.924;4.396;2022-08-07T06:12:42;9.02;;;6.30;;
19828;SDS011;10075;50.924;4.396;2022-08-07T06:15:12;8.52;;;5.53;;
19828;SDS011;10075;50.924;4.396;2022-08-07T06:17:42;9.93;;;6.13;;
19828;SDS011;10075;50.924;4.396;2022-08-07T06:20:10;6.95;;;5.25;;
19828;SDS011;10075;50.924;4.396;2022-08-07T06:22:38;8.65;;;5.50;;
19828;SDS011;10075;50.924;4.396;2022-08-07T06:25:05;8.55;;;5.45;;
19828;SDS011;10075;50.924;4.396;2022-08-07T06:27:33;6.82;;;5.28;;
19828;SDS011;10075;50.924;4.396;2022-08-07T06:30:00;9.77;;;5.13;;
19828;SDS011;10075;50.924;4.396;2022-08-07T06:32:27;6.53;;;4.45;;
19828;SDS011;10075;50.924;4.396;2022-08-07T06:34:57;6.47;;;4.63;;
19828;SDS011;10075;50.924;4.396;2022-08-07T06:37:25;5.72;;;4.00;;
19828;SDS011;10075;50.924;4.396;2022-08-07T06:39:52;6.55;;;4.85;;
19828;SDS011;10075;50.924;4.396;2022-08-07T06:42:21;6.45;;;4.32;;
19828;SDS011;10075;50.924;4.396;2022-08-07T06:44:51;6.60;;;4.55;;
19828;SDS011;10075;50.924;4.396;2022-08-07T06:47:19;6.95;;;4.63;;
19828;SDS011;10075;50.924;4.396;2022-08-07T06:49:47;6.57;;;4.50;;
19828;SDS011;10075;50.924;4.396;2022-08-07T06:52:15;6.13;;;4.65;;
19828;SDS011;10075;50.924;4.396;2022-08-07T06:54:43;8.38;;;4.70;;
19828;SDS011;10075;50.924;4.396;2022-08-07T06:57:11;6.30;;;3.85;;
19828;SDS011;10075;50.924;4.396;2022-08-07T06:59:39;5.38;;;3.20;;
19828;SDS011;10075;50.924;4.396;2022-08-07T07:02:08;7.15;;;3.30;;
19828;SDS011;10075;50.924;4.396;2022-08-07T07:04:41;6.78;;;3.60;;
19828;SDS011;10075;50.924;4.396;2022-08-07T07:07:09;7.32;;;3.17;;
19828;SDS011;10075;50.924;4.396;2022-08-07T07:09:38;6.18;;;3.38;;
19828;SDS011;10075;50.924;4.396;2022-08-07T07:12:18;6.80;;;2.95;;
19828;SDS011;10075;50.924;4.396;2022-08-07T07:14:50;5.07;;;3.10;;
19828;SDS011;10075;50.924;4.396;2022-08-07T07:17:33;4.35;;;2.55;;
19828;SDS011;10075;50.924;4.396;2022-08-07T07:20:03;6.60;;;2.40;;
19828;SDS011;10075;50.924;4.396;2022-08-07T07:22:34;5.18;;;2.90;;
19828;SDS011;10075;50.924;4.396;2022-08-07T07:25:03;6.97;;;2.80;;
19828;SDS011;10075;50.924;4.396;2022-08-07T07:27:32;5.30;;;3.10;;
19828;SDS011;10075;50.924;4.396;2022-08-07T07:30:05;3.33;;;2.58;;
19828;SDS011;10075;50.924;4.396;2022-08-07T07:32:35;4.13;;;2.80;;
19828;SDS011;10075;50.924;4.396;2022-08-07T07:35:04;4.22;;;2.85;;
19828;SDS011;10075;50.924;4.396;2022-08-07T07:37:33;5.07;;;2.90;;
19828;SDS011;10075;50.924;4.396;2022-08-07T07:40:05;7.07;;;3.22;;
19828;SDS011;10075;50.924;4.396;2022-08-07T07:42:36;4.43;;;2.80;;
19828;SDS011;10075;50.924;4.396;2022-08-07T07:45:05;4.57;;;2.85;;
19828;SDS011;10075;50.924;4.396;2022-08-07T07:47:33;4.90;;;2.97;;
19828;SDS011;10075;50.924;4.396;2022-08-07T07:50:04;6.07;;;2.90;;
19828;SDS011;10075;50.924;4.396;2022-08-07T07:52:32;5.05;;;2.47;;
19828;SDS011;10075;50.924;4.396;2022-08-07T07:55:01;6.65;;;2.85;;
19828;SDS011;10075;50.924;4.396;2022-08-07T07:57:30;4.05;;;3.10;;
19828;SDS011;10075;50.924;4.396;2022-08-07T08:00:00;7.53;;;2.97;;
19828;SDS011;10075;50.924;4.396;2022-08-07T08:02:28;4.45;;;2.70;;
19828;SDS011;10075;50.924;4.396;2022-08-07T08:04:58;5.43;;;2.78;;
19828;SDS011;10075;50.924;4.396;2022-08-07T08:07:27;5.22;;;2.40;;
19828;SDS011;10075;50.924;4.396;2022-08-07T08:09:55;3.50;;;2.45;;
19828;SDS011;10075;50.924;4.396;2022-08-07T08:12:23;3.78;;;2.50;;
19828;SDS011;10075;50.924;4.396;2022-08-07T08:14:52;5.80;;;2.90;;
19828;SDS011;10075;50.924;4.396;2022-08-07T08:17:19;5.10;;;2.78;;
19828;SDS011;10075;50.924;4.396;2022-08-07T08:19:48;4.43;;;2.75;;
19828;SDS011;10075;50.924;4.396;2022-08-07T08:22:18;4.05;;;2.70;;
19828;SDS011;10075;50.924;4.396;2022-08-07T08:25:04;3.70;;;2.55;;
19828;SDS011;10075;50.924;4.396;2022-08-07T08:27:52;4.05;;;2.70;;
19828;SDS011;10075;50.924;4.396;2022-08-07T08:30:23;4.70;;;2.38;;
19828;SDS011;10075;50.924;4.396;2022-08-07T08:32:51;4.43;;;2.25;;
19828;SDS011;10075;50.924;4.396;2022-08-07T08:35:22;6.10;;;2.78;;
19828;SDS011;10075;50.924;4.396;2022-08-07T08:37:51;4.43;;;2.45;;
19828;SDS011;10075;50.924;4.396;2022-08-07T08:40:25;5.82;;;2.38;;
19828;SDS011;10075;50.924;4.396;2022-08-07T08:42:57;6.47;;;2.63;;
19828;SDS011;10075;50.924;4.396;2022-08-07T08:45:33;4.80;;;2.20;;
19828;SDS011;10075;50.924;4.396;2022-08-07T08:48:05;3.67;;;2.40;;
19828;SDS011;10075;50.924;4.396;2022-08-07T08:50:41;4.70;;;2.72;;
19828;SDS011;10075;50.924;4.396;2022-08-07T08:53:15;6.00;;;2.30;;
19828;SDS011;10075;50.924;4.396;2022-08-07T08:55:50;3.83;;;2.25;;
19828;SDS011;10075;50.924;4.396;2022-08-07T08:58:26;4.07;;;2.20;;
19828;SDS011;10075;50.924;4.396;2022-08-07T09:01:04;4.40;;;2.58;;
19828;SDS011;10075;50.924;4.396;2022-08-07T09:03:40;4.00;;;2.50;;
19828;SDS011;10075;50.924;4.396;2022-08-07T09:06:25;3.35;;;2.33;;
19828;SDS011;10075;50.924;4.396;2022-08-07T09:09:02;5.78;;;1.95;;
19828;SDS011;10075;50.924;4.396;2022-08-07T09:11:39;5.85;;;1.90;;
19828;SDS011;10075;50.924;4.396;2022-08-07T09:14:11;3.83;;;1.90;;
19828;SDS011;10075;50.924;4.396;2022-08-07T09:16:49;4.13;;;2.20;;
19828;SDS011;10075;50.924;4.396;2022-08-07T09:19:32;3.33;;;2.17;;
19828;SDS011;10075;50.924;4.396;2022-08-07T09:22:13;2.95;;;2.20;;
19828;SDS011;10075;50.924;4.396;2022-08-07T09:24:56;4.35;;;2.17;;
19828;SDS011;10075;50.924;4.396;2022-08-07T09:27:32;3.33;;;2.17;;
19828;SDS011;10075;50.924;4.396;2022-08-07T09:30:08;3.70;;;1.95;;
19828;SDS011;10075;50.924;4.396;2022-08-07T09:32:48;3.22;;;1.85;;
19828;SDS011;10075;50.924;4.396;2022-08-07T09:35:25;4.72;;;2.00;;
19828;SDS011;10075;50.924;4.396;2022-08-07T09:38:02;3.97;;;2.05;;
19828;SDS011;10075;50.924;4.396;2022-08-07T09:40:41;3.22;;;1.92;;
19828;SDS011;10075;50.924;4.396;2022-08-07T09:43:22;5.47;;;2.30;;
19828;SDS011;10075;50.924;4.396;2022-08-07T09:46:01;4.75;;;1.92;;
19828;SDS011;10075;50.924;4.396;2022-08-07T09:48:48;2.90;;;1.58;;
19828;SDS011;10075;50.924;4.396;2022-08-07T09:51:30;4.32;;;1.58;;
19828;SDS011;10075;50.924;4.396;2022-08-07T09:54:14;4.13;;;1.90;;
19828;SDS011;10075;50.924;4.396;2022-08-07T09:56:56;3.67;;;1.35;;
19828;SDS011;10075;50.924;4.396;2022-08-07T09:59:52;3.20;;;1.67;;
19828;SDS011;10075;50.924;4.396;2022-08-07T10:05:48;5.35;;;2.00;;
19828;SDS011;10075;50.924;4.396;2022-08-07T10:11:36;3.53;;;2.17;;
19828;SDS011;10075;50.924;4.396;2022-08-07T10:14:18;3.10;;;1.40;;
19828;SDS011;10075;50.924;4.396;2022-08-07T10:16:57;4.20;;;1.85;;
19828;SDS011;10075;50.924;4.396;2022-08-07T10:19:37;2.78;;;2.08;;
19828;SDS011;10075;50.924;4.396;2022-08-07T10:22:20;4.60;;;1.60;;
19828;SDS011;10075;50.924;4.396;2022-08-07T10:25:08;4.20;;;1.58;;
19828;SDS011;10075;50.924;4.396;2022-08-07T10:27:52;2.55;;;1.42;;
19828;SDS011;10075;50.924;4.396;2022-08-07T10:30:32;3.47;;;1.73;;
19828;SDS011;10075;50.924;4.396;2022-08-07T10:33:12;3.85;;;1.80;;
19828;SDS011;10075;50.924;4.396;2022-08-07T10:35:52;2.40;;;1.33;;
19828;SDS011;10075;50.924;4.396;2022-08-07T10:38:34;4.28;;;1.48;;
19828;SDS011;10075;50.924;4.396;2022-08-07T10:41:10;2.95;;;1.60;;
19828;SDS011;10075;50.924;4.396;2022-08-07T10:43:41;3.08;;;1.63;;
19828;SDS011;10075;50.924;4.396;2022-08-07T10:46:18;2.45;;;1.20;;
19828;SDS011;10075;50.924;4.396;2022-08-07T10:48:54;4.57;;;1.48;;
19828;SDS011;10075;50.924;4.396;2022-08-07T10:51:27;3.22;;;1.58;;
19828;SDS011;10075;50.924;4.396;2022-08-07T10:54:05;4.25;;;1.70;;
19828;SDS011;10075;50.924;4.396;2022-08-07T10:56:39;3.55;;;1.75;;
19828;SDS011;10075;50.924;4.396;2022-08-07T10:59:17;3.60;;;2.17;;
19828;SDS011;10075;50.924;4.396;2022-08-07T11:01:52;3.05;;;1.75;;
19828;SDS011;10075;50.924;4.396;2022-08-07T11:04:32;3.53;;;1.50;;
19828;SDS011;10075;50.924;4.396;2022-08-07T11:07:09;3.08;;;1.65;;
19828;SDS011;10075;50.924;4.396;2022-08-07T11:09:48;3.40;;;1.63;;
19828;SDS011;10075;50.924;4.396;2022-08-07T11:12:25;5.00;;;1.30;;
19828;SDS011;10075;50.924;4.396;2022-08-07T11:14:59;1.95;;;1.70;;
19828;SDS011;10075;50.924;4.396;2022-08-07T11:17:31;4.97;;;1.50;;
19828;SDS011;10075;50.924;4.396;2022-08-07T11:20:05;3.00;;;1.48;;
19828;SDS011;10075;50.924;4.396;2022-08-07T11:22:37;1.88;;;1.10;;
19828;SDS011;10075;50.924;4.396;2022-08-07T11:25:10;1.63;;;1.50;;
19828;SDS011;10075;50.924;4.396;2022-08-07T11:27:44;2.15;;;1.38;;
19828;SDS011;10075;50.924;4.396;2022-08-07T11:30:16;2.05;;;1.30;;
19828;SDS011;10075;50.924;4.396;2022-08-07T11:32:46;2.20;;;1.88;;
19828;SDS011;10075;50.924;4.396;2022-08-07T11:35:23;5.45;;;1.70;;
19828;SDS011;10075;50.924;4.396;2022-08-07T11:38:03;2.75;;;1.60;;
19828;SDS011;10075;50.924;4.396;2022-08-07T11:40:40;7.45;;;1.90;;
19828;SDS011;10075;50.924;4.396;2022-08-07T11:43:17;2.28;;;1.60;;
19828;SDS011;10075;50.924;4.396;2022-08-07T11:45:52;2.45;;;1.40;;
19828;SDS011;10075;50.924;4.396;2022-08-07T11:48:53;3.22;;;1.83;;
19828;SDS011;10075;50.924;4.396;2022-08-07T11:51:41;2.65;;;1.60;;
19828;SDS011;10075;50.924;4.396;2022-08-07T11:54:29;1.77;;;1.10;;
19828;SDS011;10075;50.924;4.396;2022-08-07T11:57:15;2.90;;;1.70;;
19828;SDS011;10075;50.924;4.396;2022-08-07T11:59:52;2.33;;;1.60;;
19828;SDS011;10075;50.924;4.396;2022-08-07T12:02:40;1.83;;;1.52;;
19828;SDS011;10075;50.924;4.396;2022-08-07T12:05:42;2.17;;;1.52;;
19828;SDS011;10075;50.924;4.396;2022-08-07T12:08:21;1.65;;;1.00;;
19828;SDS011;10075;50.924;4.396;2022-08-07T12:10:51;2.47;;;1.08;;
19828;SDS011;10075;50.924;4.396;2022-08-07T12:13:25;2.45;;;1.13;;
19828;SDS011;10075;50.924;4.396;2022-08-07T12:16:04;2.88;;;1.20;;
19828;SDS011;10075;50.924;4.396;2022-08-07T12:18:40;2.40;;;1.45;;
19828;SDS011;10075;50.924;4.396;2022-08-07T12:21:14;2.58;;;1.40;;
19828;SDS011;10075;50.924;4.396;2022-08-07T12:23:51;2.58;;;1.30;;
19828;SDS011;10075;50.924;4.396;2022-08-07T12:26:25;2.63;;;1.67;;
19828;SDS011;10075;50.924;4.396;2022-08-07T12:28:57;4.50;;;1.60;;
19828;SDS011;10075;50.924;4.396;2022-08-07T12:31:34;3.30;;;1.50;;
19828;SDS011;10075;50.924;4.396;2022-08-07T12:34:07;1.85;;;1.38;;
19828;SDS011;10075;50.924;4.396;2022-08-07T12:36:36;3.50;;;1.20;;
19828;SDS011;10075;50.924;4.396;2022-08-07T12:39:04;3.67;;;1.40;;
19828;SDS011;10075;50.924;4.396;2022-08-07T12:41:32;3.17;;;1.35;;
19828;SDS011;10075;50.924;4.396;2022-08-07T12:44:04;3.28;;;1.60;;
19828;SDS011;10075;50.924;4.396;2022-08-07T12:46:48;2.85;;;1.58;;
19828;SDS011;10075;50.924;4.396;2022-08-07T12:49:32;2.60;;;1.75;;
19828;SDS011;10075;50.924;4.396;2022-08-07T12:52:06;2.97;;;1.50;;
19828;SDS011;10075;50.924;4.396;2022-08-07T12:54:42;2.88;;;1.15;;
19828;SDS011;10075;50.924;4.396;2022-08-07T12:57:14;4.43;;;1.25;;
19828;SDS011;10075;50.924;4.396;2022-08-07T12:59:47;2.80;;;1.40;;
19828;SDS011;10075;50.924;4.396;2022-08-07T13:02:26;3.50;;;1.35;;
19828;SDS011;10075;50.924;4.396;2022-08-07T13:05:08;2.30;;;1.40;;
19828;SDS011;10075;50.924;4.396;2022-08-07T13:07:52;2.58;;;1.55;;
19828;SDS011;10075;50.924;4.396;2022-08-07T13:10:36;2.55;;;1.33;;
19828;SDS011;10075;50.924;4.396;2022-08-07T13:13:28;3.75;;;1.75;;
19828;SDS011;10075;50.924;4.396;2022-08-07T13:16:08;2.80;;;1.70;;
19828;SDS011;10075;50.924;4.396;2022-08-07T13:18:42;1.83;;;1.30;;
19828;SDS011;10075;50.924;4.396;2022-08-07T13:21:17;1.98;;;1.38;;
19828;SDS011;10075;50.924;4.396;2022-08-07T13:23:48;1.65;;;1.33;;
19828;SDS011;10075;50.924;4.396;2022-08-07T13:26:21;2.22;;;1.40;;
19828;SDS011;10075;50.924;4.396;2022-08-07T13:28:56;6.63;;;1.50;;
19828;SDS011;10075;50.924;4.396;2022-08-07T13:31:35;4.57;;;1.52;;
19828;SDS011;10075;50.924;4.396;2022-08-07T13:34:12;1.88;;;1.33;;
19828;SDS011;10075;50.924;4.396;2022-08-07T13:36:46;2.88;;;1.60;;
19828;SDS011;10075;50.924;4.396;2022-08-07T13:39:20;2.45;;;1.52;;
19828;SDS011;10075;50.924;4.396;2022-08-07T13:41:55;2.33;;;1.48;;
19828;SDS011;10075;50.924;4.396;2022-08-07T13:44:24;2.95;;;1.50;;
19828;SDS011;10075;50.924;4.396;2022-08-07T13:46:58;6.15;;;1.60;;
19828;SDS011;10075;50.924;4.396;2022-08-07T13:49:31;7.63;;;1.60;;
19828;SDS011;10075;50.924;4.396;2022-08-07T13:52:02;3.58;;;1.30;;
19828;SDS011;10075;50.924;4.396;2022-08-07T13:54:30;3.28;;;1.73;;
19828;SDS011;10075;50.924;4.396;2022-08-07T13:56:59;2.75;;;1.27;;
19828;SDS011;10075;50.924;4.396;2022-08-07T13:59:32;2.80;;;1.50;;
19828;SDS011;10075;50.924;4.396;2022-08-07T14:02:03;2.13;;;1.30;;
19828;SDS011;10075;50.924;4.396;2022-08-07T14:04:35;2.35;;;1.40;;
19828;SDS011;10075;50.924;4.396;2022-08-07T14:07:10;3.05;;;1.63;;
19828;SDS011;10075;50.924;4.396;2022-08-07T14:09:38;1.92;;;1.50;;
19828;SDS011;10075;50.924;4.396;2022-08-07T14:12:08;1.73;;;1.25;;
19828;SDS011;10075;50.924;4.396;2022-08-07T14:14:45;1.33;;;1.20;;
19828;SDS011;10075;50.924;4.396;2022-08-07T14:17:20;1.45;;;1.00;;
19828;SDS011;10075;50.924;4.396;2022-08-07T14:19:51;1.95;;;1.20;;
19828;SDS011;10075;50.924;4.396;2022-08-07T14:22:23;2.10;;;1.17;;
19828;SDS011;10075;50.924;4.396;2022-08-07T14:24:53;3.63;;;1.27;;
19828;SDS011;10075;50.924;4.396;2022-08-07T14:27:26;1.92;;;1.60;;
19828;SDS011;10075;50.924;4.396;2022-08-07T14:30:00;4.43;;;1.85;;
19828;SDS011;10075;50.924;4.396;2022-08-07T14:32:30;4.70;;;2.40;;
19828;SDS011;10075;50.924;4.396;2022-08-07T14:35:03;6.32;;;2.00;;
19828;SDS011;10075;50.924;4.396;2022-08-07T14:37:31;5.15;;;2.35;;
19828;SDS011;10075;50.924;4.396;2022-08-07T14:40:00;6.22;;;2.05;;
19828;SDS011;10075;50.924;4.396;2022-08-07T14:42:29;4.80;;;1.98;;
19828;SDS011;10075;50.924;4.396;2022-08-07T14:45:00;5.05;;;1.73;;
19828;SDS011;10075;50.924;4.396;2022-08-07T14:47:31;5.30;;;1.55;;
19828;SDS011;10075;50.924;4.396;2022-08-07T14:49:59;2.28;;;1.27;;
19828;SDS011;10075;50.924;4.396;2022-08-07T14:52:31;2.60;;;1.58;;
19828;SDS011;10075;50.924;4.396;2022-08-07T14:55:00;4.55;;;1.70;;
19828;SDS011;10075;50.924;4.396;2022-08-07T14:57:30;3.13;;;1.60;;
19828;SDS011;10075;50.924;4.396;2022-08-07T14:59:59;2.97;;;1.50;;
19828;SDS011;10075;50.924;4.396;2022-08-07T15:02:28;3.60;;;1.65;;
19828;SDS011;10075;50.924;4.396;2022-08-07T15:04:57;2.40;;;1.60;;
19828;SDS011;10075;50.924;4.396;2022-08-07T15:07:25;3.28;;;1.48;;
19828;SDS011;10075;50.924;4.396;2022-08-07T15:09:54;3.35;;;1.75;;
19828;SDS011;10075;50.924;4.396;2022-08-07T15:12:24;2.47;;;1.80;;
19828;SDS011;10075;50.924;4.396;2022-08-07T15:14:56;3.75;;;1.70;;
19828;SDS011;10075;50.924;4.396;2022-08-07T15:17:30;2.53;;;1.33;;
19828;SDS011;10075;50.924;4.396;2022-08-07T15:20:04;2.88;;;1.65;;
19828;SDS011;10075;50.924;4.396;2022-08-07T15:22:41;4.18;;;1.30;;